sensor_id;sensor_type;location;lat;lon;timestamp;P1;durP1;ratioP1;P2;durP2;ratioP2
25449;SDS011;13371;52.080;5.624;2023-02-02T00:00:12;17.95;;;3.63;;
25449;SDS011;13371;52.080;5.624;2023-02-02T00:02:38;20.65;;;3.60;;
25449;SDS011;13371;52.080;5.624;2023-02-02T00:05:03;20.05;;;3.67;;
25449;SDS011;13371;52.080;5.624;2023-02-02T00:07:29;19.27;;;3.28;;
25449;SDS011;13371;52.080;5.624;2023-02-02T00:09:54;28.17;;;4.38;;
25449;SDS011;13371;52.080;5.624;2023-02-02T00:12:20;20.00;;;3.90;;
25449;SDS011;13371;52.080;5.624;2023-02-02T00:14:46;22.63;;;4.15;;
25449;SDS011;13371;52.080;5.624;2023-02-02T00:17:11;17.02;;;3.58;;
25449;SDS011;13371;52.080;5.624;2023-02-02T00:19:37;21.85;;;3.88;;
25449;SDS011;13371;52.080;5.624;2023-02-02T00:22:02;22.63;;;3.50;;
25449;SDS011;13371;52.080;5.624;2023-02-02T00:24:28;16.75;;;3.80;;
25449;SDS011;13371;52.080;5.624;2023-02-02T00:26:57;14.48;;;3.03;;
25449;SDS011;13371;52.080;5.624;2023-02-02T00:29:24;17.85;;;3.58;;
25449;SDS011;13371;52.080;5.624;2023-02-02T00:31:52;21.30;;;3.60;;
25449;SDS011;13371;52.080;5.624;2023-02-02T00:34:19;18.63;;;3.75;;
25449;SDS011;13371;52.080;5.624;2023-02-02T00:36:45;18.73;;;4.03;;
25449;SDS011;13371;52.080;5.624;2023-02-02T00:39:13;15.07;;;4.32;;
25449;SDS011;13371;52.080;5.624;2023-02-02T00:41:41;32.58;;;4.60;;
25449;SDS011;13371;52.080;5.624;2023-02-02T00:44:06;29.73;;;3.92;;
25449;SDS011;13371;52.080;5.624;2023-02-02T00:46:51;22.52;;;3.47;;
25449;SDS011;13371;52.080;5.624;2023-02-02T00:49:16;19.20;;;3.67;;
25449;SDS011;13371;52.080;5.624;2023-02-02T00:51:42;21.08;;;3.03;;
25449;SDS011;13371;52.080;5.624;2023-02-02T00:54:07;19.17;;;2.67;;
25449;SDS011;13371;52.080;5.624;2023-02-02T00:56:33;24.10;;;3.67;;
25449;SDS011;13371;52.080;5.624;2023-02-02T00:58:58;21.23;;;3.42;;
25449;SDS011;13371;52.080;5.624;2023-02-02T01:01:24;12.93;;;3.63;;
25449;SDS011;13371;52.080;5.624;2023-02-02T01:03:50;15.48;;;3.25;;
25449;SDS011;13371;52.080;5.624;2023-02-02T01:06:16;20.98;;;3.63;;
25449;SDS011;13371;52.080;5.624;2023-02-02T01:08:42;17.20;;;2.72;;
25449;SDS011;13371;52.080;5.624;2023-02-02T01:11:08;21.20;;;3.00;;
25449;SDS011;13371;52.080;5.624;2023-02-02T01:13:34;12.20;;;2.70;;
25449;SDS011;13371;52.080;5.624;2023-02-02T01:16:00;26.00;;;4.05;;
25449;SDS011;13371;52.080;5.624;2023-02-02T01:18:27;14.70;;;3.28;;
25449;SDS011;13371;52.080;5.624;2023-02-02T01:20:57;16.42;;;3.08;;
25449;SDS011;13371;52.080;5.624;2023-02-02T01:23:23;22.92;;;4.07;;
25449;SDS011;13371;52.080;5.624;2023-02-02T01:25:56;13.55;;;3.70;;
25449;SDS011;13371;52.080;5.624;2023-02-02T01:28:24;12.95;;;3.55;;
25449;SDS011;13371;52.080;5.624;2023-02-02T01:30:51;25.10;;;3.55;;
25449;SDS011;13371;52.080;5.624;2023-02-02T01:33:17;16.08;;;3.90;;
25449;SDS011;13371;52.080;5.624;2023-02-02T01:35:47;10.50;;;3.17;;
25449;SDS011;13371;52.080;5.624;2023-02-02T01:38:14;14.73;;;4.53;;
25449;SDS011;13371;52.080;5.624;2023-02-02T01:40:50;13.02;;;3.58;;
25449;SDS011;13371;52.080;5.624;2023-02-02T01:43:23;16.77;;;3.55;;
25449;SDS011;13371;52.080;5.624;2023-02-02T01:46:13;17.83;;;3.08;;
25449;SDS011;13371;52.080;5.624;2023-02-02T01:51:15;12.75;;;2.60;;
25449;SDS011;13371;52.080;5.624;2023-02-02T01:53:43;10.48;;;2.08;;
25449;SDS011;13371;52.080;5.624;2023-02-02T01:56:18;8.18;;;1.98;;
25449;SDS011;13371;52.080;5.624;2023-02-02T01:58:49;12.88;;;1.98;;
25449;SDS011;13371;52.080;5.624;2023-02-02T02:01:15;12.52;;;1.90;;
25449;SDS011;13371;52.080;5.624;2023-02-02T02:03:41;9.73;;;2.20;;
25449;SDS011;13371;52.080;5.624;2023-02-02T02:06:08;10.20;;;2.03;;
25449;SDS011;13371;52.080;5.624;2023-02-02T02:11:21;6.43;;;1.35;;
25449;SDS011;13371;52.080;5.624;2023-02-02T02:13:47;8.73;;;1.27;;
25449;SDS011;13371;52.080;5.624;2023-02-02T02:22:48;12.63;;;2.08;;
25449;SDS011;13371;52.080;5.624;2023-02-02T02:28:50;8.25;;;1.60;;
25449;SDS011;13371;52.080;5.624;2023-02-02T02:34:31;9.65;;;2.13;;
25449;SDS011;13371;52.080;5.624;2023-02-02T02:37:10;9.85;;;2.08;;
25449;SDS011;13371;52.080;5.624;2023-02-02T02:42:20;15.23;;;2.58;;
25449;SDS011;13371;52.080;5.624;2023-02-02T02:44:48;11.27;;;2.70;;
25449;SDS011;13371;52.080;5.624;2023-02-02T02:47:15;17.33;;;3.60;;
25449;SDS011;13371;52.080;5.624;2023-02-02T02:49:43;10.95;;;2.80;;
25449;SDS011;13371;52.080;5.624;2023-02-02T02:52:10;14.57;;;3.10;;
25449;SDS011;13371;52.080;5.624;2023-02-02T02:54:37;21.38;;;3.28;;
25449;SDS011;13371;52.080;5.624;2023-02-02T03:00:08;10.07;;;3.30;;
25449;SDS011;13371;52.080;5.624;2023-02-02T03:02:56;13.05;;;3.33;;
25449;SDS011;13371;52.080;5.624;2023-02-02T03:06:04;14.90;;;3.10;;
25449;SDS011;13371;52.080;5.624;2023-02-02T03:08:53;16.85;;;3.28;;
25449;SDS011;13371;52.080;5.624;2023-02-02T03:11:23;9.73;;;3.05;;
25449;SDS011;13371;52.080;5.624;2023-02-02T03:13:49;12.85;;;3.17;;
25449;SDS011;13371;52.080;5.624;2023-02-02T03:16:15;15.43;;;3.53;;
25449;SDS011;13371;52.080;5.624;2023-02-02T03:18:41;14.15;;;3.10;;
25449;SDS011;13371;52.080;5.624;2023-02-02T03:21:07;13.48;;;2.70;;
25449;SDS011;13371;52.080;5.624;2023-02-02T03:23:33;19.55;;;3.63;;
25449;SDS011;13371;52.080;5.624;2023-02-02T03:25:59;19.63;;;3.13;;
25449;SDS011;13371;52.080;5.624;2023-02-02T03:28:25;19.27;;;3.28;;
25449;SDS011;13371;52.080;5.624;2023-02-02T03:30:51;13.13;;;3.30;;
25449;SDS011;13371;52.080;5.624;2023-02-02T03:33:18;19.02;;;3.35;;
25449;SDS011;13371;52.080;5.624;2023-02-02T03:35:44;26.60;;;3.80;;
25449;SDS011;13371;52.080;5.624;2023-02-02T03:38:10;19.83;;;3.67;;
25449;SDS011;13371;52.080;5.624;2023-02-02T03:40:36;17.27;;;3.20;;
25449;SDS011;13371;52.080;5.624;2023-02-02T03:43:03;23.20;;;3.35;;
25449;SDS011;13371;52.080;5.624;2023-02-02T03:45:29;15.18;;;3.70;;
25449;SDS011;13371;52.080;5.624;2023-02-02T03:47:56;16.40;;;3.45;;
25449;SDS011;13371;52.080;5.624;2023-02-02T03:50:21;12.93;;;3.17;;
25449;SDS011;13371;52.080;5.624;2023-02-02T03:52:49;22.85;;;4.30;;
25449;SDS011;13371;52.080;5.624;2023-02-02T03:55:14;27.58;;;3.72;;
25449;SDS011;13371;52.080;5.624;2023-02-02T03:57:40;21.08;;;3.58;;
25449;SDS011;13371;52.080;5.624;2023-02-02T04:00:06;25.25;;;3.42;;
25449;SDS011;13371;52.080;5.624;2023-02-02T04:02:32;20.15;;;3.40;;
25449;SDS011;13371;52.080;5.624;2023-02-02T04:04:57;17.67;;;3.47;;
25449;SDS011;13371;52.080;5.624;2023-02-02T04:07:23;12.95;;;3.35;;
25449;SDS011;13371;52.080;5.624;2023-02-02T04:09:49;20.02;;;3.65;;
25449;SDS011;13371;52.080;5.624;2023-02-02T04:12:14;20.98;;;3.53;;
25449;SDS011;13371;52.080;5.624;2023-02-02T04:14:40;21.63;;;3.47;;
25449;SDS011;13371;52.080;5.624;2023-02-02T04:17:05;16.52;;;3.78;;
25449;SDS011;13371;52.080;5.624;2023-02-02T04:19:31;21.48;;;4.07;;
25449;SDS011;13371;52.080;5.624;2023-02-02T04:21:56;26.00;;;4.43;;
25449;SDS011;13371;52.080;5.624;2023-02-02T04:24:22;20.90;;;3.83;;
25449;SDS011;13371;52.080;5.624;2023-02-02T04:26:47;19.67;;;3.28;;
25449;SDS011;13371;52.080;5.624;2023-02-02T04:29:13;25.90;;;3.85;;
25449;SDS011;13371;52.080;5.624;2023-02-02T04:31:39;18.85;;;3.58;;
25449;SDS011;13371;52.080;5.624;2023-02-02T04:34:04;13.45;;;3.50;;
25449;SDS011;13371;52.080;5.624;2023-02-02T04:36:30;23.38;;;3.63;;
25449;SDS011;13371;52.080;5.624;2023-02-02T04:38:55;17.50;;;3.53;;
25449;SDS011;13371;52.080;5.624;2023-02-02T04:41:22;20.15;;;3.58;;
25449;SDS011;13371;52.080;5.624;2023-02-02T04:43:48;15.07;;;3.60;;
25449;SDS011;13371;52.080;5.624;2023-02-02T04:46:14;23.13;;;3.53;;
25449;SDS011;13371;52.080;5.624;2023-02-02T04:48:40;15.68;;;4.10;;
25449;SDS011;13371;52.080;5.624;2023-02-02T04:51:08;19.42;;;3.67;;
25449;SDS011;13371;52.080;5.624;2023-02-02T04:53:36;19.65;;;3.95;;
25449;SDS011;13371;52.080;5.624;2023-02-02T04:56:06;25.27;;;3.42;;
25449;SDS011;13371;52.080;5.624;2023-02-02T04:58:34;21.45;;;3.25;;
25449;SDS011;13371;52.080;5.624;2023-02-02T05:01:00;16.80;;;3.85;;
25449;SDS011;13371;52.080;5.624;2023-02-02T05:03:25;17.20;;;3.53;;
25449;SDS011;13371;52.080;5.624;2023-02-02T05:05:59;18.15;;;3.63;;
25449;SDS011;13371;52.080;5.624;2023-02-02T05:08:25;17.83;;;2.95;;
25449;SDS011;13371;52.080;5.624;2023-02-02T05:10:51;17.15;;;3.45;;
25449;SDS011;13371;52.080;5.624;2023-02-02T05:13:16;12.90;;;2.75;;
25449;SDS011;13371;52.080;5.624;2023-02-02T05:15:42;20.63;;;5.10;;
25449;SDS011;13371;52.080;5.624;2023-02-02T05:18:10;28.00;;;3.97;;
25449;SDS011;13371;52.080;5.624;2023-02-02T05:20:36;18.90;;;3.63;;
25449;SDS011;13371;52.080;5.624;2023-02-02T05:23:01;25.48;;;3.92;;
25449;SDS011;13371;52.080;5.624;2023-02-02T05:25:27;24.25;;;3.30;;
25449;SDS011;13371;52.080;5.624;2023-02-02T05:27:53;19.30;;;4.22;;
25449;SDS011;13371;52.080;5.624;2023-02-02T05:30:18;15.32;;;3.80;;
25449;SDS011;13371;52.080;5.624;2023-02-02T05:32:44;8.23;;;2.85;;
25449;SDS011;13371;52.080;5.624;2023-02-02T05:35:09;22.75;;;4.32;;
25449;SDS011;13371;52.080;5.624;2023-02-02T05:37:35;20.55;;;3.65;;
25449;SDS011;13371;52.080;5.624;2023-02-02T05:40:01;18.83;;;3.92;;
25449;SDS011;13371;52.080;5.624;2023-02-02T05:42:28;16.35;;;3.65;;
25449;SDS011;13371;52.080;5.624;2023-02-02T05:44:53;18.58;;;4.07;;
25449;SDS011;13371;52.080;5.624;2023-02-02T05:47:19;15.45;;;4.53;;
25449;SDS011;13371;52.080;5.624;2023-02-02T05:49:45;24.88;;;4.03;;
25449;SDS011;13371;52.080;5.624;2023-02-02T05:52:15;15.50;;;3.88;;
25449;SDS011;13371;52.080;5.624;2023-02-02T05:54:43;21.65;;;4.18;;
25449;SDS011;13371;52.080;5.624;2023-02-02T05:57:09;24.80;;;4.47;;
25449;SDS011;13371;52.080;5.624;2023-02-02T05:59:35;16.27;;;3.95;;
25449;SDS011;13371;52.080;5.624;2023-02-02T06:02:00;25.30;;;4.07;;
25449;SDS011;13371;52.080;5.624;2023-02-02T06:04:26;12.23;;;3.65;;
25449;SDS011;13371;52.080;5.624;2023-02-02T06:06:51;17.90;;;3.33;;
25449;SDS011;13371;52.080;5.624;2023-02-02T06:09:17;23.55;;;4.60;;
25449;SDS011;13371;52.080;5.624;2023-02-02T06:11:43;21.95;;;3.88;;
25449;SDS011;13371;52.080;5.624;2023-02-02T06:14:09;11.93;;;3.00;;
25449;SDS011;13371;52.080;5.624;2023-02-02T06:16:35;15.23;;;3.45;;
25449;SDS011;13371;52.080;5.624;2023-02-02T06:19:00;13.98;;;4.15;;
25449;SDS011;13371;52.080;5.624;2023-02-02T06:21:26;20.30;;;3.95;;
25449;SDS011;13371;52.080;5.624;2023-02-02T06:23:55;16.90;;;4.28;;
25449;SDS011;13371;52.080;5.624;2023-02-02T06:26:21;18.20;;;3.58;;
25449;SDS011;13371;52.080;5.624;2023-02-02T06:28:47;15.43;;;3.25;;
25449;SDS011;13371;52.080;5.624;2023-02-02T06:31:15;15.40;;;3.58;;
25449;SDS011;13371;52.080;5.624;2023-02-02T06:33:43;12.25;;;3.20;;
25449;SDS011;13371;52.080;5.624;2023-02-02T06:36:09;16.17;;;3.40;;
25449;SDS011;13371;52.080;5.624;2023-02-02T06:38:35;11.60;;;3.45;;
25449;SDS011;13371;52.080;5.624;2023-02-02T06:41:01;19.40;;;3.17;;
25449;SDS011;13371;52.080;5.624;2023-02-02T06:43:27;9.45;;;2.38;;
25449;SDS011;13371;52.080;5.624;2023-02-02T06:45:53;16.35;;;3.25;;
25449;SDS011;13371;52.080;5.624;2023-02-02T06:48:20;14.70;;;3.45;;
25449;SDS011;13371;52.080;5.624;2023-02-02T06:50:46;14.52;;;3.28;;
25449;SDS011;13371;52.080;5.624;2023-02-02T06:53:11;10.25;;;3.10;;
25449;SDS011;13371;52.080;5.624;2023-02-02T06:55:37;13.57;;;3.00;;
25449;SDS011;13371;52.080;5.624;2023-02-02T06:58:02;17.95;;;3.47;;
25449;SDS011;13371;52.080;5.624;2023-02-02T07:00:28;15.38;;;3.70;;
25449;SDS011;13371;52.080;5.624;2023-02-02T07:02:54;12.30;;;3.05;;
25449;SDS011;13371;52.080;5.624;2023-02-02T07:05:20;13.68;;;3.40;;
25449;SDS011;13371;52.080;5.624;2023-02-02T07:07:47;13.27;;;3.88;;
25449;SDS011;13371;52.080;5.624;2023-02-02T07:10:14;12.50;;;3.10;;
25449;SDS011;13371;52.080;5.624;2023-02-02T07:12:39;15.52;;;3.67;;
25449;SDS011;13371;52.080;5.624;2023-02-02T07:15:05;17.75;;;3.70;;
25449;SDS011;13371;52.080;5.624;2023-02-02T07:17:31;17.63;;;3.70;;
25449;SDS011;13371;52.080;5.624;2023-02-02T07:19:57;13.50;;;3.10;;
25449;SDS011;13371;52.080;5.624;2023-02-02T07:22:22;22.23;;;4.30;;
25449;SDS011;13371;52.080;5.624;2023-02-02T07:24:48;14.82;;;3.67;;
25449;SDS011;13371;52.080;5.624;2023-02-02T07:27:13;17.83;;;4.40;;
25449;SDS011;13371;52.080;5.624;2023-02-02T07:29:39;10.48;;;3.90;;
25449;SDS011;13371;52.080;5.624;2023-02-02T07:32:04;13.70;;;4.53;;
25449;SDS011;13371;52.080;5.624;2023-02-02T07:34:30;18.92;;;3.95;;
25449;SDS011;13371;52.080;5.624;2023-02-02T07:36:56;19.95;;;4.55;;
25449;SDS011;13371;52.080;5.624;2023-02-02T07:39:21;21.92;;;4.78;;
25449;SDS011;13371;52.080;5.624;2023-02-02T07:41:47;15.98;;;4.38;;
25449;SDS011;13371;52.080;5.624;2023-02-02T07:44:13;18.10;;;4.85;;
25449;SDS011;13371;52.080;5.624;2023-02-02T07:46:40;15.57;;;4.18;;
25449;SDS011;13371;52.080;5.624;2023-02-02T07:49:06;15.70;;;4.32;;
25449;SDS011;13371;52.080;5.624;2023-02-02T07:51:31;20.15;;;4.45;;
25449;SDS011;13371;52.080;5.624;2023-02-02T07:53:57;11.88;;;4.22;;
25449;SDS011;13371;52.080;5.624;2023-02-02T07:56:24;19.73;;;3.50;;
25449;SDS011;13371;52.080;5.624;2023-02-02T07:58:52;16.23;;;4.13;;
25449;SDS011;13371;52.080;5.624;2023-02-02T08:01:18;16.33;;;3.55;;
25449;SDS011;13371;52.080;5.624;2023-02-02T08:03:46;17.70;;;4.45;;
25449;SDS011;13371;52.080;5.624;2023-02-02T08:08:40;21.60;;;4.63;;
25449;SDS011;13371;52.080;5.624;2023-02-02T08:11:07;16.10;;;3.67;;
25449;SDS011;13371;52.080;5.624;2023-02-02T08:13:34;15.70;;;3.85;;
25449;SDS011;13371;52.080;5.624;2023-02-02T08:15:59;13.07;;;2.78;;
25449;SDS011;13371;52.080;5.624;2023-02-02T08:18:25;28.23;;;5.03;;
25449;SDS011;13371;52.080;5.624;2023-02-02T08:20:50;21.98;;;4.07;;
25449;SDS011;13371;52.080;5.624;2023-02-02T08:23:16;19.73;;;3.88;;
25449;SDS011;13371;52.080;5.624;2023-02-02T08:25:47;18.92;;;4.80;;
25449;SDS011;13371;52.080;5.624;2023-02-02T08:28:14;20.13;;;3.80;;
25449;SDS011;13371;52.080;5.624;2023-02-02T08:30:40;14.27;;;3.67;;
25449;SDS011;13371;52.080;5.624;2023-02-02T08:33:05;24.45;;;4.47;;
25449;SDS011;13371;52.080;5.624;2023-02-02T08:35:31;18.05;;;3.55;;
25449;SDS011;13371;52.080;5.624;2023-02-02T08:37:56;16.88;;;3.95;;
25449;SDS011;13371;52.080;5.624;2023-02-02T08:40:22;17.60;;;4.00;;
25449;SDS011;13371;52.080;5.624;2023-02-02T08:42:51;17.77;;;3.20;;
25449;SDS011;13371;52.080;5.624;2023-02-02T08:45:17;24.50;;;4.03;;
25449;SDS011;13371;52.080;5.624;2023-02-02T08:47:43;13.88;;;3.28;;
25449;SDS011;13371;52.080;5.624;2023-02-02T08:50:09;13.90;;;3.35;;
25449;SDS011;13371;52.080;5.624;2023-02-02T08:52:35;18.15;;;3.30;;
25449;SDS011;13371;52.080;5.624;2023-02-02T08:55:00;16.88;;;3.50;;
25449;SDS011;13371;52.080;5.624;2023-02-02T08:57:26;18.35;;;3.22;;
25449;SDS011;13371;52.080;5.624;2023-02-02T08:59:52;19.77;;;3.67;;
25449;SDS011;13371;52.080;5.624;2023-02-02T09:02:18;15.43;;;3.42;;
25449;SDS011;13371;52.080;5.624;2023-02-02T09:04:43;14.88;;;3.30;;
25449;SDS011;13371;52.080;5.624;2023-02-02T09:07:11;29.10;;;4.18;;
25449;SDS011;13371;52.080;5.624;2023-02-02T09:09:36;18.65;;;3.70;;
25449;SDS011;13371;52.080;5.624;2023-02-02T09:12:02;17.17;;;3.83;;
25449;SDS011;13371;52.080;5.624;2023-02-02T09:14:28;17.45;;;4.07;;
25449;SDS011;13371;52.080;5.624;2023-02-02T09:16:53;17.90;;;3.65;;
25449;SDS011;13371;52.080;5.624;2023-02-02T09:19:19;16.98;;;3.58;;
25449;SDS011;13371;52.080;5.624;2023-02-02T09:21:44;14.85;;;3.30;;
25449;SDS011;13371;52.080;5.624;2023-02-02T09:24:11;10.48;;;3.47;;
25449;SDS011;13371;52.080;5.624;2023-02-02T09:26:37;19.92;;;4.07;;
25449;SDS011;13371;52.080;5.624;2023-02-02T09:29:04;24.25;;;3.88;;
25449;SDS011;13371;52.080;5.624;2023-02-02T09:31:35;12.20;;;3.13;;
25449;SDS011;13371;52.080;5.624;2023-02-02T09:34:02;15.45;;;3.15;;
25449;SDS011;13371;52.080;5.624;2023-02-02T09:36:32;19.20;;;4.53;;
25449;SDS011;13371;52.080;5.624;2023-02-02T09:38:59;11.25;;;3.45;;
25449;SDS011;13371;52.080;5.624;2023-02-02T09:46:32;12.15;;;2.85;;
25449;SDS011;13371;52.080;5.624;2023-02-02T09:49:18;14.70;;;3.05;;
25449;SDS011;13371;52.080;5.624;2023-02-02T09:51:51;22.00;;;3.90;;
25449;SDS011;13371;52.080;5.624;2023-02-02T09:57:15;15.40;;;3.70;;
25449;SDS011;13371;52.080;5.624;2023-02-02T09:59:46;21.98;;;4.07;;
25449;SDS011;13371;52.080;5.624;2023-02-02T10:02:20;12.00;;;3.03;;
25449;SDS011;13371;52.080;5.624;2023-02-02T10:04:55;25.40;;;3.95;;
25449;SDS011;13371;52.080;5.624;2023-02-02T10:07:45;11.07;;;2.67;;
25449;SDS011;13371;52.080;5.624;2023-02-02T10:10:48;16.52;;;3.28;;
25449;SDS011;13371;52.080;5.624;2023-02-02T10:13:09;16.25;;;3.80;;
25449;SDS011;13371;52.080;5.624;2023-02-02T10:18:41;17.40;;;3.03;;
25449;SDS011;13371;52.080;5.624;2023-02-02T10:21:23;20.77;;;3.00;;
25449;SDS011;13371;52.080;5.624;2023-02-02T10:23:59;21.70;;;3.92;;
25449;SDS011;13371;52.080;5.624;2023-02-02T10:31:48;17.15;;;3.50;;
25449;SDS011;13371;52.080;5.624;2023-02-02T10:37:10;16.77;;;3.53;;
25449;SDS011;13371;52.080;5.624;2023-02-02T10:45:33;16.80;;;3.40;;
25449;SDS011;13371;52.080;5.624;2023-02-02T10:48:00;18.50;;;3.83;;
25449;SDS011;13371;52.080;5.624;2023-02-02T10:50:26;17.10;;;3.25;;
25449;SDS011;13371;52.080;5.624;2023-02-02T10:52:54;29.88;;;6.07;;
25449;SDS011;13371;52.080;5.624;2023-02-02T10:55:30;16.13;;;3.92;;
25449;SDS011;13371;52.080;5.624;2023-02-02T11:00:39;12.63;;;3.28;;
25449;SDS011;13371;52.080;5.624;2023-02-02T11:03:17;15.75;;;4.40;;
25449;SDS011;13371;52.080;5.624;2023-02-02T11:05:45;20.25;;;4.10;;
25449;SDS011;13371;52.080;5.624;2023-02-02T11:08:34;14.00;;;3.58;;
25449;SDS011;13371;52.080;5.624;2023-02-02T11:11:11;17.05;;;3.67;;
25449;SDS011;13371;52.080;5.624;2023-02-02T11:13:43;12.13;;;3.05;;
25449;SDS011;13371;52.080;5.624;2023-02-02T11:16:30;20.67;;;3.50;;
25449;SDS011;13371;52.080;5.624;2023-02-02T11:18:57;10.30;;;3.20;;
25449;SDS011;13371;52.080;5.624;2023-02-02T11:24:00;12.85;;;3.40;;
25449;SDS011;13371;52.080;5.624;2023-02-02T11:29:46;16.52;;;3.47;;
25449;SDS011;13371;52.080;5.624;2023-02-02T11:35:03;14.65;;;3.90;;
25449;SDS011;13371;52.080;5.624;2023-02-02T11:40:27;12.70;;;3.53;;
25449;SDS011;13371;52.080;5.624;2023-02-02T11:42:59;15.20;;;3.25;;
25449;SDS011;13371;52.080;5.624;2023-02-02T11:45:29;12.35;;;3.05;;
25449;SDS011;13371;52.080;5.624;2023-02-02T11:48:03;9.27;;;2.88;;
25449;SDS011;13371;52.080;5.624;2023-02-02T11:50:31;15.98;;;3.97;;
25449;SDS011;13371;52.080;5.624;2023-02-02T11:52:57;13.00;;;3.00;;
25449;SDS011;13371;52.080;5.624;2023-02-02T11:55:25;12.77;;;2.60;;
25449;SDS011;13371;52.080;5.624;2023-02-02T11:58:09;12.85;;;3.08;;
25449;SDS011;13371;52.080;5.624;2023-02-02T12:00:45;17.60;;;2.85;;
25449;SDS011;13371;52.080;5.624;2023-02-02T12:09:11;14.70;;;2.85;;
25449;SDS011;13371;52.080;5.624;2023-02-02T12:22:11;14.88;;;2.55;;
25449;SDS011;13371;52.080;5.624;2023-02-02T12:25:08;12.98;;;2.75;;
25449;SDS011;13371;52.080;5.624;2023-02-02T12:28:15;23.08;;;2.60;;
25449;SDS011;13371;52.080;5.624;2023-02-02T12:31:04;10.70;;;2.53;;
25449;SDS011;13371;52.080;5.624;2023-02-02T12:41:50;10.55;;;2.13;;
25449;SDS011;13371;52.080;5.624;2023-02-02T12:47:27;12.50;;;2.08;;
25449;SDS011;13371;52.080;5.624;2023-02-02T12:50:44;10.20;;;2.67;;
25449;SDS011;13371;52.080;5.624;2023-02-02T12:53:31;13.98;;;2.40;;
25449;SDS011;13371;52.080;5.624;2023-02-02T12:58:58;17.02;;;2.33;;
25449;SDS011;13371;52.080;5.624;2023-02-02T13:07:00;10.23;;;2.17;;
25449;SDS011;13371;52.080;5.624;2023-02-02T13:12:27;12.88;;;2.55;;
25449;SDS011;13371;52.080;5.624;2023-02-02T13:14:57;14.55;;;2.28;;
25449;SDS011;13371;52.080;5.624;2023-02-02T13:17:37;16.90;;;2.92;;
25449;SDS011;13371;52.080;5.624;2023-02-02T13:23:15;11.98;;;2.10;;
25449;SDS011;13371;52.080;5.624;2023-02-02T13:31:43;14.85;;;2.33;;
25449;SDS011;13371;52.080;5.624;2023-02-02T13:34:38;10.88;;;2.63;;
25449;SDS011;13371;52.080;5.624;2023-02-02T13:40:04;12.15;;;2.53;;
25449;SDS011;13371;52.080;5.624;2023-02-02T13:42:59;13.52;;;2.50;;
25449;SDS011;13371;52.080;5.624;2023-02-02T13:56:29;11.60;;;2.47;;
25449;SDS011;13371;52.080;5.624;2023-02-02T14:01:33;10.88;;;2.33;;
25449;SDS011;13371;52.080;5.624;2023-02-02T14:03:59;16.17;;;3.00;;
25449;SDS011;13371;52.080;5.624;2023-02-02T14:06:25;6.13;;;2.47;;
25449;SDS011;13371;52.080;5.624;2023-02-02T14:09:02;10.90;;;2.85;;
25449;SDS011;13371;52.080;5.624;2023-02-02T14:11:30;12.32;;;2.78;;
25449;SDS011;13371;52.080;5.624;2023-02-02T14:14:07;9.70;;;3.05;;
25449;SDS011;13371;52.080;5.624;2023-02-02T14:16:52;11.90;;;2.78;;
25449;SDS011;13371;52.080;5.624;2023-02-02T14:22:07;8.48;;;2.60;;
25449;SDS011;13371;52.080;5.624;2023-02-02T14:24:43;7.60;;;2.90;;
25449;SDS011;13371;52.080;5.624;2023-02-02T14:34:50;4.47;;;2.20;;
25449;SDS011;13371;52.080;5.624;2023-02-02T14:39:56;5.82;;;2.03;;
25449;SDS011;13371;52.080;5.624;2023-02-02T14:42:54;6.82;;;1.80;;
25449;SDS011;13371;52.080;5.624;2023-02-02T14:45:43;5.30;;;2.10;;
25449;SDS011;13371;52.080;5.624;2023-02-02T14:48:18;6.82;;;2.92;;
25449;SDS011;13371;52.080;5.624;2023-02-02T14:50:53;5.75;;;2.60;;
25449;SDS011;13371;52.080;5.624;2023-02-02T14:53:24;7.68;;;2.95;;
25449;SDS011;13371;52.080;5.624;2023-02-02T15:01:02;3.42;;;2.15;;
25449;SDS011;13371;52.080;5.624;2023-02-02T15:03:33;1.98;;;1.58;;
25449;SDS011;13371;52.080;5.624;2023-02-02T15:19:47;4.78;;;3.05;;
25449;SDS011;13371;52.080;5.624;2023-02-02T15:24:54;3.83;;;2.28;;
25449;SDS011;13371;52.080;5.624;2023-02-02T15:27:23;4.70;;;2.30;;
25449;SDS011;13371;52.080;5.624;2023-02-02T15:29:54;4.68;;;2.60;;
25449;SDS011;13371;52.080;5.624;2023-02-02T15:32:26;3.15;;;2.15;;
25449;SDS011;13371;52.080;5.624;2023-02-02T15:34:53;3.08;;;2.38;;
25449;SDS011;13371;52.080;5.624;2023-02-02T15:37:26;3.47;;;2.40;;
25449;SDS011;13371;52.080;5.624;2023-02-02T15:40:04;4.00;;;3.00;;
25449;SDS011;13371;52.080;5.624;2023-02-02T15:42:45;3.95;;;2.80;;
25449;SDS011;13371;52.080;5.624;2023-02-02T15:48:20;5.53;;;3.50;;
25449;SDS011;13371;52.080;5.624;2023-02-02T15:50:47;6.50;;;3.70;;
25449;SDS011;13371;52.080;5.624;2023-02-02T15:53:20;7.05;;;3.60;;
25449;SDS011;13371;52.080;5.624;2023-02-02T15:55:56;5.60;;;3.60;;
25449;SDS011;13371;52.080;5.624;2023-02-02T15:58:27;6.03;;;3.72;;
25449;SDS011;13371;52.080;5.624;2023-02-02T16:01:02;9.02;;;4.80;;
25449;SDS011;13371;52.080;5.624;2023-02-02T16:03:37;9.40;;;5.40;;
25449;SDS011;13371;52.080;5.624;2023-02-02T16:06:35;9.27;;;4.85;;
25449;SDS011;13371;52.080;5.624;2023-02-02T16:09:01;10.98;;;4.90;;
25449;SDS011;13371;52.080;5.624;2023-02-02T16:11:27;8.30;;;5.35;;
25449;SDS011;13371;52.080;5.624;2023-02-02T16:13:58;11.55;;;7.18;;
25449;SDS011;13371;52.080;5.624;2023-02-02T16:16:27;11.82;;;5.97;;
25449;SDS011;13371;52.080;5.624;2023-02-02T16:19:02;12.40;;;5.78;;
25449;SDS011;13371;52.080;5.624;2023-02-02T16:21:29;15.73;;;6.30;;
25449;SDS011;13371;52.080;5.624;2023-02-02T16:23:55;12.68;;;5.25;;
25449;SDS011;13371;52.080;5.624;2023-02-02T16:26:22;11.27;;;5.30;;
25449;SDS011;13371;52.080;5.624;2023-02-02T16:28:52;11.23;;;6.15;;
25449;SDS011;13371;52.080;5.624;2023-02-02T16:31:18;11.32;;;6.72;;
25449;SDS011;13371;52.080;5.624;2023-02-02T16:33:44;14.07;;;6.43;;
25449;SDS011;13371;52.080;5.624;2023-02-02T16:38:49;11.82;;;6.82;;
25449;SDS011;13371;52.080;5.624;2023-02-02T16:41:34;14.43;;;7.65;;
25449;SDS011;13371;52.080;5.624;2023-02-02T16:46:52;20.13;;;8.55;;
25449;SDS011;13371;52.080;5.624;2023-02-02T16:49:21;14.90;;;8.40;;
25449;SDS011;13371;52.080;5.624;2023-02-02T16:52:05;25.60;;;9.65;;
25449;SDS011;13371;52.080;5.624;2023-02-02T16:54:48;18.08;;;9.40;;
25449;SDS011;13371;52.080;5.624;2023-02-02T16:57:20;21.00;;;10.15;;
25449;SDS011;13371;52.080;5.624;2023-02-02T16:59:51;19.05;;;10.35;;
25449;SDS011;13371;52.080;5.624;2023-02-02T17:02:29;21.15;;;12.27;;
25449;SDS011;13371;52.080;5.624;2023-02-02T17:07:30;20.77;;;10.57;;
25449;SDS011;13371;52.080;5.624;2023-02-02T17:10:13;22.42;;;11.60;;
25449;SDS011;13371;52.080;5.624;2023-02-02T17:12:42;19.52;;;10.77;;
25449;SDS011;13371;52.080;5.624;2023-02-02T17:17:41;19.30;;;11.38;;
25449;SDS011;13371;52.080;5.624;2023-02-02T17:20:16;20.67;;;10.43;;
25449;SDS011;13371;52.080;5.624;2023-02-02T17:22:44;24.95;;;9.95;;
25449;SDS011;13371;52.080;5.624;2023-02-02T17:25:15;25.00;;;9.38;;
25449;SDS011;13371;52.080;5.624;2023-02-02T17:27:43;20.90;;;10.50;;
25449;SDS011;13371;52.080;5.624;2023-02-02T17:30:13;27.38;;;9.65;;
25449;SDS011;13371;52.080;5.624;2023-02-02T17:32:41;17.95;;;8.07;;
25449;SDS011;13371;52.080;5.624;2023-02-02T17:35:18;20.20;;;6.93;;
25449;SDS011;13371;52.080;5.624;2023-02-02T17:37:48;20.38;;;7.22;;
25449;SDS011;13371;52.080;5.624;2023-02-02T17:40:17;23.02;;;7.22;;
25449;SDS011;13371;52.080;5.624;2023-02-02T17:42:46;16.13;;;5.82;;
25449;SDS011;13371;52.080;5.624;2023-02-02T17:48:12;18.75;;;6.47;;
25449;SDS011;13371;52.080;5.624;2023-02-02T17:50:38;21.20;;;7.53;;